Time;durP1;ratioP1;P1;durP2;ratioP2;P2;SDS_P1;SDS_P2;PMS_P1;PMS_P2;Temp;Humidity;BMP_temperature;BMP_pressure;BME280_temperature;BME280_humidity;BME280_pressure;Samples;Min_cycle;Max_cycle;Signal;HPM_P1;HPM_P2
2023/02/28 00:00:41;;;;;;;;;;;1.10;99.90;;;;;;6176044;23;19971;-87
2023/02/28 00:03:40;;;;;;;;;;;;;;;;;;;;;
2023/02/28 00:06:45;;;;;;;;;;;;;;;;;;;;;
2023/02/28 00:09:24;;;;;;;;;;;1.20;99.90;;;;;;6180822;23;20353;-86
2023/02/28 00:11:56;;;;;;;;;;;1.20;99.90;;;;;;6180664;23;20255;-87
2023/02/28 00:17:56;;;;;;;;;;;1.30;99.90;;;;;;6172088;23;19903;-87
2023/02/28 00:23:24;;;;;;;;;;;1.30;99.90;;;;;;6172135;23;20382;-86
2023/02/28 00:25:59;;;;;;;;;;;1.30;99.90;;;;;;6181146;23;19904;-87
2023/02/28 00:31:58;;;;;;;;;;;1.20;99.90;;;;;;6185388;23;19900;-86
2023/02/28 00:37:57;;;;;;;;;;;1.20;99.90;;;;;;6183156;23;19900;-86
2023/02/28 00:43:37;;;;;;;;;;;1.10;99.90;;;;;;6174995;23;19911;-86
2023/02/28 00:46:29;;;;;;;;;;;1.10;99.90;;;;;;6180474;23;19904;-85
2023/02/28 00:49:18;;;;;;;;;;;1.00;99.90;;;;;;6153953;23;20335;-87
2023/02/28 00:51:49;;;;;;;;;;;1.00;99.90;;;;;;6183042;23;19910;-86
2023/02/28 00:57:45;;;;;;;;;;;;;;;;;;;;;
2023/02/28 01:01:07;;;;;;;8.43;4.90;;;0.90;99.90;;;;;;6181743;23;20497;-87
2023/02/28 01:04:03;;;;;;;9.23;5.35;;;0.90;99.90;;;;;;6166647;23;20165;-86
2023/02/28 01:10:16;;;;;;;8.95;4.80;;;1.10;99.90;;;;;;6180574;23;20188;-87
2023/02/28 01:13:25;;;;;;;4.88;4.35;;;1.10;99.90;;;;;;6066576;23;20183;-86
2023/02/28 01:20:21;;;;;;;9.18;5.28;;;1.20;99.90;;;;;;6088012;23;20226;-87
2023/02/28 01:23:10;;;;;;;8.77;4.70;;;1.20;99.90;;;;;;6182285;23;20158;-86
2023/02/28 01:25:46;;;;;;;10.02;5.60;;;1.20;99.90;;;;;;6183758;23;20202;-86
2023/02/28 01:32:14;;;;;;;10.77;5.43;;;1.10;99.90;;;;;;6163237;23;20770;-86
2023/02/28 01:35:23;;;;;;;10.57;5.32;;;1.10;99.90;;;;;;6161994;23;20300;-86
2023/02/28 01:38:35;;;;;;;10.30;5.72;;;1.10;99.90;;;;;;6183371;23;20235;-87
2023/02/28 01:41:12;;;;;;;9.70;5.28;;;1.00;99.90;;;;;;6183270;23;20205;-86
2023/02/28 01:47:08;;;;;;;6.25;5.30;;;1.00;99.90;;;;;;6168502;23;20186;-87
2023/02/28 01:53:31;;;;;;;7.55;5.18;;;1.00;99.90;;;;;;6168208;23;20155;-86
2023/02/28 01:56:36;;;;;;;;;;;;;;;;;;;;;
2023/02/28 01:59:52;;;;;;;;;;;;;;;;;;;;;
2023/02/28 02:05:57;;;;;;;;;;;;;;;;;;;;;
2023/02/28 02:12:20;;;;;;;8.75;4.88;;;0.90;99.90;;;;;;6084564;23;20177;-87
2023/02/28 02:15:48;;;;;;;9.88;5.95;;;0.90;99.90;;;;;;6182233;23;20209;-87
2023/02/28 02:18:37;;;;;;;7.00;5.57;;;1.00;99.90;;;;;;6184381;23;20185;-86
2023/02/28 02:25:52;;;;;;;10.80;5.28;;;1.10;99.90;;;;;;6184616;23;20177;-86
2023/02/28 02:28:30;;;;;;;;;;;;;;;;;;;;;
2023/02/28 02:31:35;;;;;;;7.60;5.80;;;1.30;99.90;;;;;;6212829;22;20268;-87
2023/02/28 02:42:21;;;;;;;;;;;;;;;;;;;;;
2023/02/28 02:44:35;;;;;;;7.78;6.18;;;1.30;99.90;;;;;;6178350;23;20158;-87
2023/02/28 02:48:08;;;;;;;9.13;6.97;;;1.20;99.90;;;;;;6188773;23;20178;-87
2023/02/28 02:51:11;;;;;;;;;;;;;;;;;;;;;
2023/02/28 02:54:23;;;;;;;8.30;5.90;;;1.10;99.90;;;;;;6093759;23;20234;-87
2023/02/28 02:57:30;;;;;;;10.05;6.68;;;1.10;99.90;;;;;;6154011;23;20180;-87
2023/02/28 03:00:24;;;;;;;12.82;7.57;;;1.00;99.90;;;;;;6198508;23;20169;-87
2023/02/28 03:06:57;;;;;;;10.90;7.18;;;0.90;99.90;;;;;;6179341;23;20213;-87
2023/02/28 03:09:55;;;;;;;14.32;6.53;;;0.90;99.90;;;;;;6136737;23;20201;-87
2023/02/28 03:13:00;;;;;;;10.65;6.55;;;0.80;99.90;;;;;;6187542;23;20180;-87
2023/02/28 03:16:16;;;;;;;11.82;6.90;;;0.80;99.90;;;;;;6184668;23;20625;-87
2023/02/28 03:19:43;;;;;;;12.10;6.82;;;0.80;99.90;;;;;;6185499;23;20541;-87
2023/02/28 03:22:49;;;;;;;;;;;;;;;;;;;;;
2023/02/28 03:29:30;;;;;;;9.85;7.05;;;0.60;99.90;;;;;;6087104;23;20161;-86
2023/02/28 03:35:37;;;;;;;11.43;6.65;;;0.50;99.90;;;;;;6193435;23;20169;-87
2023/02/28 03:39:01;;;;;;;17.33;7.35;;;0.50;99.90;;;;;;6184940;23;20161;-86
2023/02/28 03:49:54;;;;;;;;;;;;;;;;;;;;;
2023/02/28 03:52:34;;;;;;;8.77;6.72;;;0.30;1.00;;;;;;6202953;23;20158;-87
2023/02/28 04:06:23;;;;;;;11.55;7.05;;;0.20;1.00;;;;;;6169524;23;20181;-86
2023/02/28 04:09:27;;;;;;;10.85;6.75;;;0.10;1.00;;;;;;6066491;23;20183;-86
2023/02/28 04:12:21;;;;;;;8.63;6.85;;;0.00;99.90;;;;;;6059146;23;20171;-86
2023/02/28 04:15:02;;;;;;;12.20;8.48;;;-0.10;99.90;;;;;;6092344;23;20176;-86
2023/02/28 04:21:15;;;;;;;8.27;6.38;;;-0.10;99.90;;;;;;6170529;23;20185;-86
2023/02/28 04:23:49;;;;;;;10.00;7.57;;;-0.10;99.90;;;;;;6187613;23;20153;-86
2023/02/28 04:30:16;;;;;;;;;;;;;;;;;;;;;
2023/02/28 04:32:35;;;;;;;10.15;6.68;;;0.00;99.90;;;;;;6185983;23;20223;-87
2023/02/28 04:45:21;;;;;;;10.88;6.85;;;0.20;99.90;;;;;;6156984;23;20188;-86
2023/02/28 04:48:25;;;;;;;;;;;;;;;;;;;;;
2023/02/28 04:51:23;;;;;;;6.70;5.93;;;0.30;99.90;;;;;;6213093;23;20248;-86
2023/02/28 04:54:21;;;;;;;7.05;5.95;;;0.30;99.90;;;;;;6177100;23;20668;-86
2023/02/28 05:03:54;;;;;;;10.55;5.90;;;0.30;99.90;;;;;;6082782;23;20511;-87
2023/02/28 05:06:46;;;;;;;11.13;5.70;;;0.30;99.90;;;;;;6188292;23;20181;-87
2023/02/28 05:09:44;;;;;;;6.88;5.57;;;0.20;99.90;;;;;;6187823;23;20644;-86
2023/02/28 05:38:17;;;;;;;;;;;;;;;;;;;;;
2023/02/28 07:00:08;;;;;;;10.43;6.03;;;0.40;1.00;;;;;;6020305;23;20213;-85
2023/02/28 07:02:37;;;;;;;6.15;4.20;;;0.50;1.00;;;;;;6039760;23;20154;-85
2023/02/28 07:05:08;;;;;;;7.07;4.80;;;0.70;1.00;;;;;;6040008;23;20561;-84
2023/02/28 07:07:36;;;;;;;8.98;5.15;;;1.00;1.00;;;;;;6042775;23;20185;-85
2023/02/28 07:10:01;;;;;;;5.97;5.18;;;3.80;1.00;;;;;;6041917;23;20170;-85
2023/02/28 07:12:27;;;;;;;7.17;4.80;;;7.70;99.90;;;;;;6039226;23;20165;-85
2023/02/28 07:14:55;;;;;;;8.10;5.10;;;10.90;99.90;;;;;;6036367;23;20632;-84
2023/02/28 07:17:23;;;;;;;5.47;4.60;;;13.40;99.90;;;;;;6034612;23;20226;-85
2023/02/28 07:19:51;;;;;;;7.00;4.70;;;15.60;99.90;;;;;;6034297;23;20414;-85
2023/02/28 07:22:16;;;;;;;7.50;4.77;;;17.30;99.90;;;;;;6031992;23;20398;-85
2023/02/28 07:24:44;;;;;;;4.90;4.40;;;18.80;99.90;;;;;;6033462;23;20407;-86
2023/02/28 07:27:10;;;;;;;6.23;4.37;;;20.30;99.90;;;;;;6032624;23;20275;-85
2023/02/28 07:29:38;;;;;;;6.50;4.30;;;21.50;99.90;;;;;;6033489;23;20930;-86
2023/02/28 07:32:04;;;;;;;5.83;4.50;;;22.60;99.90;;;;;;6033865;23;20156;-86
2023/02/28 07:34:29;;;;;;;5.73;5.07;;;23.80;99.90;;;;;;6033411;23;20387;-86
2023/02/28 07:36:55;;;;;;;6.10;4.40;;;24.70;99.90;;;;;;6034227;23;20602;-86
2023/02/28 07:39:24;;;;;;;4.40;4.00;;;25.40;99.90;;;;;;6033608;23;20257;-86
2023/02/28 07:41:52;;;;;;;7.27;4.27;;;26.10;99.90;;;;;;6034292;23;20389;-86
2023/02/28 07:44:20;;;;;;;6.87;4.40;;;26.50;99.90;;;;;;6035169;23;20390;-85
2023/02/28 07:46:48;;;;;;;6.73;4.10;;;26.90;99.90;;;;;;6032928;23;20457;-86
2023/02/28 07:49:14;;;;;;;5.07;3.60;;;27.40;99.90;;;;;;6035259;23;20810;-86
2023/02/28 07:51:39;;;;;;;7.00;3.77;;;27.70;99.90;;;;;;6036323;23;20387;-86
2023/02/28 07:54:05;;;;;;;6.43;3.43;;;28.10;99.90;;;;;;6036148;23;20660;-86
2023/02/28 07:56:30;;;;;;;5.30;3.90;;;28.40;99.90;;;;;;6035600;23;20165;-86
2023/02/28 07:58:56;;;;;;;5.10;3.60;;;28.70;99.90;;;;;;6041123;23;20205;-85
2023/02/28 08:01:21;;;;;;;6.17;4.07;;;29.00;99.90;;;;;;6034968;23;20166;-86
2023/02/28 08:03:47;;;;;;;10.20;4.40;;;29.30;99.90;;;;;;6032763;23;20166;-87
2023/02/28 08:06:27;;;;;;;3.83;3.17;;;29.70;99.90;;;;;;6034178;23;20564;-86
2023/02/28 08:09:10;;;;;;;5.60;4.00;;;30.30;99.90;;;;;;6157141;23;20285;-87
2023/02/28 08:11:38;;;;;;;5.60;3.80;;;30.70;99.90;;;;;;6156561;23;20456;-88
2023/02/28 08:14:17;;;;;;;6.03;3.90;;;30.90;99.90;;;;;;6031260;23;20402;-88
2023/02/28 08:16:43;;;;;;;5.47;3.13;;;;;;;;;;6033106;23;20413;-89
2023/02/28 08:19:36;;;;;;;;;;;;;;;;;;;;;
2023/02/28 08:22:23;;;;;;;7.03;3.10;;;30.60;99.90;;;;;;6035167;23;20382;-88
2023/02/28 08:28:44;;;;;;;;;;;;;;;;;;;;;
2023/02/28 08:31:42;;;;;;;5.67;3.20;;;29.90;99.90;;;;;;6033608;23;20461;-88
2023/02/28 08:34:17;;;;;;;5.50;3.03;;;29.10;99.90;;;;;;6030891;23;20759;-87
2023/02/28 08:36:52;;;;;;;3.57;3.00;;;28.80;99.90;;;;;;6030882;23;20367;-88
2023/02/28 08:39:31;;;;;;;3.43;3.13;;;28.70;99.90;;;;;;6156453;23;20406;-88
2023/02/28 08:41:56;;;;;;;5.83;2.90;;;28.40;99.90;;;;;;6032845;23;20383;-88
2023/02/28 08:44:24;;;;;;;3.90;2.77;;;28.20;99.90;;;;;;6032328;23;20409;-88
2023/02/28 08:46:50;;;;;;;5.20;3.07;;;28.10;99.90;;;;;;6031820;23;20230;-88
2023/02/28 08:49:17;;;;;;;3.30;2.63;;;28.20;99.90;;;;;;6131130;23;20509;-88
2023/02/28 08:51:43;;;;;;;4.57;2.80;;;28.40;99.90;;;;;;6032676;23;20420;-89
2023/02/28 08:54:19;;;;;;;4.03;3.23;;;28.50;99.90;;;;;;6032223;23;20374;-89
2023/02/28 08:56:46;;;;;;;3.97;3.10;;;28.20;99.90;;;;;;6155958;23;20515;-88
2023/02/28 08:59:12;;;;;;;3.87;2.80;;;27.90;99.90;;;;;;6033135;23;20437;-88
2023/02/28 09:01:38;;;;;;;4.80;2.50;;;27.90;99.90;;;;;;6031070;23;20394;-87
2023/02/28 09:04:03;;;;;;;3.40;2.93;;;27.70;99.90;;;;;;6032964;23;20168;-88
2023/02/28 09:06:40;;;;;;;4.10;2.57;;;27.60;99.90;;;;;;6031524;23;20188;-88
2023/02/28 09:09:15;;;;;;;3.57;2.40;;;26.90;99.90;;;;;;6032285;23;20208;-88
2023/02/28 09:11:42;;;;;;;3.30;2.37;;;26.50;99.90;;;;;;6030438;23;20993;-87
2023/02/28 09:14:08;;;;;;;9.90;3.03;;;26.30;99.90;;;;;;6032627;23;20382;-87
2023/02/28 09:16:41;;;;;;;6.70;3.40;;;26.10;99.90;;;;;;6030302;23;20456;-88
2023/02/28 09:22:03;;;;;;;7.53;3.30;;;24.80;96.00;;;;;;6064708;23;20390;-86
2023/02/28 09:24:36;;;;;;;5.00;2.87;;;23.90;93.00;;;;;;6033251;23;20387;-85
2023/02/28 09:27:01;;;;;;;3.33;2.10;;;23.70;91.90;;;;;;6032786;23;20181;-86
2023/02/28 09:29:27;;;;;;;14.07;3.70;;;23.80;92.10;;;;;;6033094;23;20395;-86
2023/02/28 09:32:05;;;;;;;10.23;2.80;;;23.60;91.40;;;;;;6033636;23;20200;-87
2023/02/28 09:34:31;;;;;;;5.70;2.20;;;23.30;89.50;;;;;;6157076;23;20196;-85
2023/02/28 09:36:56;;;;;;;3.23;2.00;;;23.30;88.70;;;;;;6034974;23;20823;-87
2023/02/28 09:39:22;;;;;;;4.93;2.33;;;23.40;89.00;;;;;;6034624;23;20205;-86
2023/02/28 09:41:51;;;;;;;4.70;2.47;;;23.00;87.30;;;;;;6157592;23;20205;-85
2023/02/28 09:44:31;;;;;;;5.27;2.00;;;23.00;86.20;;;;;;6035281;23;20390;-87
2023/02/28 09:47:04;;;;;;;5.20;1.90;;;22.90;83.40;;;;;;6035846;23;20425;-84
2023/02/28 09:49:43;;;;;;;5.73;1.90;;;23.10;84.30;;;;;;6035600;23;20488;-86
2023/02/28 09:52:31;;;;;;;3.10;1.70;;;23.10;82.80;;;;;;6035857;23;20385;-86
2023/02/28 09:55:21;;;;;;;7.93;2.27;;;23.30;84.30;;;;;;6034039;23;20382;-86
2023/02/28 09:57:48;;;;;;;4.30;1.80;;;23.60;85.30;;;;;;6035560;23;20897;-86
2023/02/28 10:00:24;;;;;;;5.83;2.00;;;23.70;85.60;;;;;;6034286;23;20413;-86
2023/02/28 10:02:57;;;;;;;5.80;2.03;;;23.70;85.50;;;;;;6035728;23;20381;-86
2023/02/28 10:05:28;;;;;;;3.57;1.90;;;23.20;81.90;;;;;;6033517;23;20825;-85
2023/02/28 10:08:04;;;;;;;14.60;2.30;;;22.80;78.30;;;;;;6039200;23;20739;-85
2023/02/28 10:10:39;;;;;;;4.30;1.97;;;22.50;75.30;;;;;;6038358;23;20417;-86
2023/02/28 10:13:19;;;;;;;2.90;1.93;;;21.60;69.60;;;;;;6040969;23;20379;-85
2023/02/28 10:15:47;;;;;;;4.67;1.90;;;20.60;61.80;;;;;;6042894;23;20485;-85
2023/02/28 10:18:16;;;;;;;8.17;1.80;;;20.50;62.30;;;;;;6040504;23;20907;-84
2023/02/28 10:20:43;;;;;;;2.53;1.63;;;20.10;59.50;;;;;;6040340;23;20392;-85
2023/02/28 10:23:19;;;;;;;2.23;1.30;;;19.90;58.90;;;;;;6038154;23;20380;-86
2023/02/28 10:25:52;;;;;;;2.17;1.70;;;19.60;56.20;;;;;;6038209;23;20364;-85
2023/02/28 10:28:18;;;;;;;1.90;1.63;;;19.40;55.80;;;;;;6037443;23;20698;-85
2023/02/28 10:30:52;;;;;;;2.67;2.00;;;19.80;56.80;;;;;;6037723;23;20400;-85
2023/02/28 10:33:22;;;;;;;9.30;2.50;;;19.10;54.10;;;;;;6034275;23;20143;-86
2023/02/28 10:35:49;;;;;;;3.27;2.10;;;18.70;53.80;;;;;;6036805;23;20445;-86
2023/02/28 10:38:40;;;;;;;2.03;1.70;;;18.70;52.80;;;;;;6034139;23;20397;-86
2023/02/28 10:41:11;;;;;;;2.73;2.00;;;18.90;54.00;;;;;;6161380;23;20397;-86
2023/02/28 10:43:39;;;;;;;3.30;2.10;;;19.10;54.60;;;;;;6159562;23;20397;-86
2023/02/28 10:46:10;;;;;;;2.70;1.93;;;19.60;56.60;;;;;;6036460;23;20435;-86
2023/02/28 10:48:57;;;;;;;11.10;2.30;;;19.90;57.90;;;;;;6033858;23;20588;-85
2023/02/28 10:51:23;;;;;;;3.50;2.33;;;20.20;59.80;;;;;;6036631;23;20370;-86
2023/02/28 10:53:52;;;;;;;3.50;1.90;;;20.40;60.20;;;;;;6160539;23;20405;-86
2023/02/28 10:56:23;;;;;;;6.33;3.10;;;20.50;61.20;;;;;;6162712;23;20300;-87
2023/02/28 10:59:00;;;;;;;4.77;2.67;;;20.60;61.70;;;;;;6036728;23;20463;-85
2023/02/28 11:01:31;;;;;;;4.37;2.93;;;20.60;61.00;;;;;;6036540;23;20870;-87
2023/02/28 11:03:57;;;;;;;8.60;2.53;;;20.30;59.20;;;;;;6034664;23;20485;-86
2023/02/28 11:06:30;;;;;;;5.93;2.50;;;20.50;59.60;;;;;;6037674;23;20446;-86
2023/02/28 11:09:16;;;;;;;4.63;2.50;;;20.50;59.40;;;;;;6045160;23;20819;-86
2023/02/28 11:11:47;;;;;;;3.33;1.90;;;20.20;58.60;;;;;;6042803;23;20367;-86
2023/02/28 11:14:25;;;;;;;3.20;2.20;;;20.00;58.60;;;;;;6035926;23;20359;-87
2023/02/28 11:16:52;;;;;;;4.33;2.00;;;20.00;57.70;;;;;;6034299;23;20850;-86
2023/02/28 11:19:26;;;;;;;5.40;2.10;;;20.00;57.90;;;;;;6157468;23;20424;-85
2023/02/28 11:22:20;;;;;;;2.57;2.37;;;20.10;58.30;;;;;;6035022;23;20362;-86
2023/02/28 11:24:50;;;;;;;3.63;1.93;;;20.40;58.80;;;;;;6034529;23;20410;-86
2023/02/28 11:27:25;;;;;;;2.30;2.10;;;20.60;59.40;;;;;;6034989;23;20418;-85
2023/02/28 11:29:51;;;;;;;5.20;2.20;;;20.10;56.80;;;;;;6034394;23;20399;-87
2023/02/28 11:32:21;;;;;;;5.80;2.20;;;20.10;57.40;;;;;;6034287;23;20674;-86
2023/02/28 11:35:04;;;;;;;4.80;2.47;;;20.30;58.70;;;;;;6034370;23;20161;-86
2023/02/28 11:37:32;;;;;;;4.63;2.50;;;20.40;59.10;;;;;;6035640;23;20367;-86
2023/02/28 11:39:57;;;;;;;2.23;1.80;;;20.20;58.20;;;;;;6034061;23;20410;-86
2023/02/28 11:42:51;;;;;;;3.70;2.47;;;20.20;58.10;;;;;;6034827;23;20467;-86
2023/02/28 11:45:48;;;;;;;3.37;2.20;;;19.90;57.10;;;;;;6036566;23;20145;-85
2023/02/28 11:48:18;;;;;;;2.67;1.97;;;20.10;58.00;;;;;;6066319;23;20464;-88
2023/02/28 11:50:54;;;;;;;7.27;2.30;;;20.10;57.90;;;;;;6038613;23;20425;-86
2023/02/28 11:53:40;;;;;;;2.10;1.90;;;20.40;58.70;;;;;;6036807;23;20373;-86
2023/02/28 11:56:22;;;;;;;4.60;2.40;;;20.50;59.50;;;;;;6035460;23;20850;-86
2023/02/28 11:59:19;;;;;;;5.00;2.30;;;21.10;62.70;;;;;;6033652;23;20413;-86
2023/02/28 12:02:23;;;;;;;2.83;2.40;;;21.20;63.10;;;;;;6035303;23;20431;-85
2023/02/28 12:05:08;;;;;;;2.83;2.00;;;21.50;64.00;;;;;;6035648;23;20417;-87
2023/02/28 12:07:43;;;;;;;4.03;2.57;;;21.40;64.20;;;;;;6032605;23;20426;-86
2023/02/28 12:10:21;;;;;;;2.90;2.17;;;21.20;62.60;;;;;;6039381;23;20401;-85
2023/02/28 12:13:26;;;;;;;3.20;2.70;;;21.10;62.00;;;;;;6043711;23;20375;-86
2023/02/28 12:16:07;;;;;;;3.17;2.33;;;21.10;62.30;;;;;;6111205;23;20398;-86
2023/02/28 12:18:44;;;;;;;3.67;2.50;;;20.80;59.30;;;;;;6036332;23;20406;-85
2023/02/28 12:21:31;;;;;;;2.60;1.90;;;19.90;55.40;;;;;;6036166;23;20388;-86
2023/02/28 12:24:15;;;;;;;3.90;2.53;;;19.50;53.70;;;;;;6034345;23;20443;-86
2023/02/28 12:26:49;;;;;;;3.83;3.00;;;19.80;55.60;;;;;;6034211;23;20426;-86
2023/02/28 12:29:27;;;;;;;4.70;2.50;;;19.90;55.70;;;;;;6033545;23;20414;-86
2023/02/28 12:32:16;;;;;;;4.13;2.63;;;19.50;54.60;;;;;;6034621;23;20410;-86
2023/02/28 12:35:00;;;;;;;2.80;2.13;;;19.10;53.20;;;;;;6159736;23;20385;-87
2023/02/28 12:37:42;;;;;;;2.60;2.37;;;19.20;53.70;;;;;;6035527;23;20397;-87
2023/02/28 12:40:40;;;;;;;4.93;3.03;;;19.50;55.40;;;;;;6034085;23;20417;-87
2023/02/28 12:43:16;;;;;;;4.73;2.60;;;19.30;54.30;;;;;;6049321;23;20471;-87
2023/02/28 12:46:19;;;;;;;2.87;1.83;;;18.70;51.10;;;;;;6035102;23;20453;-87
2023/02/28 12:48:59;;;;;;;4.37;3.40;;;18.60;50.80;;;;;;6078601;23;20482;-85
2023/02/28 12:51:49;;;;;;;4.80;3.70;;;18.10;49.40;;;;;;6033115;23;20386;-87
2023/02/28 12:55:10;;;;;;;4.83;2.50;;;17.90;47.90;;;;;;6047848;23;20480;-86
2023/02/28 12:57:47;;;;;;;3.60;2.63;;;18.00;48.80;;;;;;6028918;23;20409;-85
2023/02/28 13:07:24;;;;;;;4.63;4.13;;;18.20;51.30;;;;;;6050175;23;20457;-86
2023/02/28 13:10:38;;;;;;;6.53;3.20;;;18.00;51.00;;;;;;6034197;23;20412;-86
2023/02/28 13:13:56;;;;;;;5.90;4.10;;;17.30;48.10;;;;;;6034420;23;20400;-86
2023/02/28 13:16:45;;;;;;;5.17;3.63;;;;;;;;;;6035974;23;20392;-86
2023/02/28 13:19:23;;;;;;;4.40;4.00;;;16.70;34.60;;;;;;6043619;23;20739;-86
2023/02/28 13:21:59;;;;;;;4.50;3.00;;;16.70;45.40;;;;;;6038009;23;20377;-89
2023/02/28 13:24:49;;;;;;;4.60;3.33;;;16.50;44.30;;;;;;6037690;23;20850;-86
2023/02/28 13:30:24;;;;;;;4.53;3.70;;;15.90;41.80;;;;;;6041500;23;20402;-86
2023/02/28 13:33:38;;;;;;;;;;;;;;;;;;;;;
2023/02/28 13:36:32;;;;;;;3.90;2.57;;;16.20;43.00;;;;;;6034780;23;20479;-86
2023/02/28 13:39:23;;;;;;;4.93;3.10;;;16.30;44.90;;;;;;6032660;23;20801;-86
2023/02/28 13:41:51;;;;;;;4.80;3.30;;;16.30;44.40;;;;;;6035102;23;20435;-87
2023/02/28 13:47:54;;;;;;;3.57;2.57;;;16.40;45.50;;;;;;6078396;23;20452;-86
2023/02/28 13:50:37;;;;;;;6.27;3.10;;;16.30;46.00;;;;;;6032882;23;20400;-86
2023/02/28 13:53:15;;;;;;;6.00;3.20;;;16.10;45.60;;;;;;6033460;23;20433;-86
2023/02/28 13:55:46;;;;;;;6.07;3.53;;;15.40;42.40;;;;;;6033435;23;20810;-85
2023/02/28 13:58:44;;;;;;;5.47;3.00;;;15.10;41.20;;;;;;6034976;23;20915;-86
2023/02/28 14:01:37;;;;;;;3.97;3.07;;;14.90;40.60;;;;;;6035326;23;20869;-86
2023/02/28 14:04:03;;;;;;;4.60;3.73;;;14.50;39.70;;;;;;6036298;23;20873;-86
2023/02/28 14:06:32;;;;;;;4.87;3.50;;;14.50;40.00;;;;;;6037028;23;20426;-86
2023/02/28 14:09:28;;;;;;;4.13;2.80;;;14.70;41.40;;;;;;6035918;23;20194;-87
2023/02/28 14:55:42;;;;;;;5.43;3.60;;;14.30;44.10;;;;;;6245632;22;20769;-88
2023/02/28 15:06:38;;;;;;;;;;;;;;;;;;;;;
2023/02/28 15:13:19;;;;;;;;;;;;;;;;;;;;;
2023/02/28 15:16:26;;;;;;;;;;;;;;;;;;;;;
2023/02/28 15:20:17;;;;;;;;;;;;;;;;;;;;;
2023/02/28 15:29:25;;;;;;;5.43;3.87;;;14.20;46.60;;;;;;6079033;23;20485;-86
2023/02/28 15:38:58;;;;;;;6.50;4.00;;;13.90;46.00;;;;;;6119862;23;20527;-85
2023/02/28 15:48:35;;;;;;;9.50;6.60;;;13.50;45.50;;;;;;6133187;23;20668;-87
2023/02/28 16:17:08;;;;;;;4.90;3.97;;;10.70;35.90;;;;;;6233051;22;20950;-85
2023/02/28 16:24:00;;;;;;;;;;;;;;;;;;;;;
2023/02/28 16:26:53;;;;;;;5.17;4.27;;;10.10;34.90;;;;;;6251178;23;21005;-86
2023/02/28 16:30:08;;;;;;;5.40;3.90;;;9.90;35.50;;;;;;6225288;23;20407;-85
2023/02/28 16:32:57;;;;;;;8.20;4.20;;;9.80;36.00;;;;;;6218565;23;20482;-85
2023/02/28 16:35:56;;;;;;;;;;;;;;;;;;;;;
2023/02/28 16:41:34;;;;;;;;;;;;;;;;;;;;;
2023/02/28 16:44:32;;;;;;;7.97;4.57;;;9.30;36.30;;;;;;6254040;23;20407;-85
2023/02/28 16:47:19;;;;;;;5.87;4.43;;;9.10;36.40;;;;;;6194010;23;20446;-86
2023/02/28 16:49:50;;;;;;;6.25;5.35;;;8.90;36.50;;;;;;6253260;23;20419;-85
2023/02/28 16:52:59;;;;;;;8.10;5.78;;;8.80;36.30;;;;;;6254374;23;20161;-85
2023/02/28 16:56:13;;;;;;;9.52;6.43;;;8.70;36.70;;;;;;6225537;23;20176;-86
2023/02/28 16:59:04;;;;;;;7.20;5.78;;;8.60;37.20;;;;;;6254766;23;20647;-85
2023/02/28 17:04:36;;;;;;;6.05;4.47;;;8.30;37.00;;;;;;6239123;23;20161;-85
2023/02/28 17:07:27;;;;;;;6.00;4.33;;;8.20;37.10;;;;;;6229756;23;20181;-85
2023/02/28 17:10:20;;;;;;;5.35;4.43;;;8.00;37.20;;;;;;6174903;23;20196;-87
2023/02/28 17:21:49;;;;;;;5.28;4.78;;;7.60;37.60;;;;;;6103547;23;20188;-86
2023/02/28 17:24:15;;;;;;;6.63;4.40;;;7.40;37.30;;;;;;6236724;23;20161;-87
2023/02/28 17:30:08;;;;;;;6.70;4.95;;;7.20;38.80;;;;;;6226622;23;20173;-87
2023/02/28 17:48:22;;;;;;;8.88;7.00;;;7.10;45.10;;;;;;5880759;22;10225148;-86
2023/02/28 17:50:55;;;;;;;5.75;4.70;;;7.00;44.80;;;;;;6262494;22;20216;-86
2023/02/28 17:57:45;;;;;;;;;;;;;;;;;;;;;
2023/02/28 18:12:40;;;;;;;8.10;5.60;;;6.10;45.60;;;;;;6234232;23;20182;-87
2023/02/28 18:15:28;;;;;;;10.07;5.68;;;6.00;45.70;;;;;;6227475;23;20152;-87
2023/02/28 18:32:29;;;;;;;6.15;5.55;;;5.60;46.50;;;;;;6176252;23;20153;-87
2023/02/28 18:36:08;;;;;;;;;;;;;;;;;;;;;
2023/02/28 18:42:24;;;;;;;9.63;8.10;;;5.50;61.30;;;;;;6100620;23;20253;-87
2023/02/28 18:44:58;;;;;;;10.73;6.82;;;5.50;49.50;;;;;;6218510;23;20161;-87
2023/02/28 18:48:12;;;;;;;10.52;7.32;;;5.40;49.70;;;;;;6223672;23;20568;-86
2023/02/28 18:50:44;;;;;;;7.45;6.65;;;5.40;50.50;;;;;;6223284;23;20237;-88
2023/02/28 18:56:49;;;;;;;7.43;6.00;;;5.30;51.10;;;;;;6203565;23;20158;-87
2023/02/28 18:59:35;;;;;;;6.25;5.35;;;5.30;52.20;;;;;;6206974;23;20495;-87
2023/02/28 19:05:39;;;;;;;11.70;8.23;;;5.20;53.20;;;;;;6223004;23;20158;-86
2023/02/28 19:08:33;;;;;;;11.35;6.63;;;5.20;54.50;;;;;;6218796;23;20154;-86
2023/02/28 19:11:04;;;;;;;6.25;5.43;;;5.10;55.00;;;;;;6195770;23;20182;-87
2023/02/28 19:14:02;;;;;;;10.70;6.85;;;5.00;54.40;;;;;;6221529;23;20200;-87
2023/02/28 19:16:55;;;;;;;;;;;;;;;;;;;;;
2023/02/28 19:19:48;;;;;;;6.97;6.28;;;4.90;56.40;;;;;;6218453;23;20261;-87
2023/02/28 19:22:13;;;;;;;6.93;6.32;;;4.80;56.80;;;;;;6218273;23;20142;-86
2023/02/28 19:24:49;;;;;;;5.83;5.30;;;4.70;57.70;;;;;;6218240;23;20666;-86
2023/02/28 19:31:27;;;;;;;8.32;6.43;;;4.60;57.80;;;;;;6212895;23;20621;-85
2023/02/28 19:34:19;;;;;;;10.85;6.40;;;4.60;59.00;;;;;;6201554;23;20177;-86
2023/02/28 19:40:30;;;;;;;;;;;;;;;;;;;;;
2023/02/28 19:43:05;;;;;;;18.45;11.98;;;4.30;64.50;;;;;;6221161;23;20179;-86
2023/02/28 19:45:57;;;;;;;;;;;;;;;;;;;;;
2023/02/28 19:48:32;;;;;;;44.40;20.85;;;4.00;67.00;;;;;;6247068;23;20624;-86
2023/02/28 19:51:27;;;;;;;23.67;12.07;;;3.90;70.30;;;;;;6224657;23;20236;-86
2023/02/28 19:53:58;;;;;;;16.05;8.80;;;3.90;73.20;;;;;;6251855;23;20644;-84
2023/02/28 19:56:31;;;;;;;9.57;7.20;;;3.80;74.40;;;;;;6255137;23;20168;-85
2023/02/28 19:59:04;;;;;;;8.25;7.03;;;3.80;75.00;;;;;;6230553;22;20184;-85
2023/02/28 20:01:55;;;;;;;9.88;6.93;;;3.80;77.90;;;;;;6256863;23;20472;-85
2023/02/28 20:04:25;;;;;;;13.07;9.75;;;3.90;79.50;;;;;;6251425;23;20163;-85
2023/02/28 20:10:35;;;;;;;11.52;9.10;;;4.00;84.70;;;;;;6207786;23;20207;-85
2023/02/28 20:16:02;;;;;;;9.45;6.03;;;4.00;87.10;;;;;;6234490;23;20175;-85
2023/02/28 20:21:51;;;;;;;8.98;6.68;;;4.00;90.10;;;;;;6233058;23;20153;-85
2023/02/28 20:24:17;;;;;;;8.27;7.25;;;4.00;90.40;;;;;;6255918;23;20144;-85
2023/02/28 20:27:04;;;;;;;;;;;;;;;;;;;;;
2023/02/28 20:29:39;;;;;;;7.25;6.55;;;4.00;91.50;;;;;;6256671;22;20192;-85
2023/02/28 20:32:12;;;;;;;7.18;6.10;;;4.00;91.30;;;;;;6255629;23;20133;-85
2023/02/28 20:34:50;;;;;;;7.35;6.22;;;4.00;92.20;;;;;;6228896;23;20184;-85
2023/02/28 20:37:16;;;;;;;8.45;6.75;;;4.00;92.40;;;;;;6229942;23;20145;-85
2023/02/28 20:39:51;;;;;;;9.57;6.67;;;3.90;92.70;;;;;;6251959;22;20203;-85
2023/02/28 20:45:39;;;;;;;8.75;6.35;;;3.90;93.60;;;;;;6254601;23;20163;-85
2023/02/28 20:48:21;;;;;;;12.05;6.97;;;3.80;94.10;;;;;;6223905;23;20284;-85
2023/02/28 20:50:59;;;;;;;8.20;6.57;;;3.80;94.50;;;;;;6221223;23;20177;-85
2023/02/28 20:53:43;;;;;;;9.20;6.65;;;3.80;95.00;;;;;;6220987;23;20256;-85
2023/02/28 20:56:30;;;;;;;8.40;7.70;;;3.80;95.20;;;;;;6223410;23;20130;-85
2023/02/28 20:59:21;;;;;;;8.10;6.45;;;3.80;95.50;;;;;;6222724;23;20164;-85
2023/02/28 21:01:46;;;;;;;9.45;8.07;;;3.80;96.20;;;;;;6224410;23;20130;-85
2023/02/28 21:04:17;;;;;;;14.10;7.57;;;3.70;96.80;;;;;;6223821;23;20152;-85
2023/02/28 21:06:45;;;;;;;10.48;6.78;;;3.70;97.20;;;;;;6223868;23;20185;-85
2023/02/28 21:09:15;;;;;;;9.70;7.13;;;3.70;97.30;;;;;;6223263;23;20236;-84
2023/02/28 21:11:43;;;;;;;8.43;6.43;;;3.70;97.60;;;;;;6224043;23;20153;-85
2023/02/28 21:14:24;;;;;;;11.68;7.07;;;3.70;97.50;;;;;;6231735;23;20204;-85
2023/02/28 21:16:51;;;;;;;11.15;7.50;;;3.60;97.80;;;;;;6229190;23;20157;-85
2023/02/28 21:19:25;;;;;;;8.68;6.28;;;3.60;99.00;;;;;;6230044;23;20193;-85
2023/02/28 21:21:54;;;;;;;12.50;7.18;;;3.60;98.80;;;;;;6230439;23;20130;-85
2023/02/28 21:24:27;;;;;;;9.05;7.93;;;3.60;99.30;;;;;;6229627;23;20149;-84
2023/02/28 21:26:58;;;;;;;9.02;7.10;;;3.60;99.60;;;;;;6229609;23;20149;-85
2023/02/28 21:29:38;;;;;;;;;;;;;;;;;;;;;
2023/02/28 21:32:15;;;;;;;12.15;8.95;;;3.50;99.90;;;;;;6227514;23;20162;-85
2023/02/28 21:34:43;;;;;;;15.52;10.38;;;3.50;99.90;;;;;;6231582;23;20171;-86
2023/02/28 21:37:37;;;;;;;;;;;;;;;;;;;;;
2023/02/28 21:40:10;;;;;;;13.48;8.07;;;3.40;99.90;;;;;;6219382;23;20197;-85
2023/02/28 21:43:11;;;;;;;9.52;7.43;;;3.40;99.90;;;;;;6217165;23;20145;-86
2023/02/28 21:46:07;;;;;;;11.55;7.88;;;3.30;99.90;;;;;;6222468;23;20282;-88
2023/02/28 21:48:30;;;;;;;7.95;7.15;;;3.30;99.90;;;;;;6243030;23;20247;-85
2023/02/28 21:51:02;;;;;;;8.70;6.85;;;3.20;99.90;;;;;;6222007;23;20173;-84
2023/02/28 21:53:53;;;;;;;;;;;;;;;;;;;;;
2023/02/28 21:56:29;;;;;;;9.35;8.07;;;3.20;99.90;;;;;;6250448;23;20157;-84
2023/02/28 21:59:14;;;;;;;11.05;7.63;;;3.20;99.90;;;;;;6220683;22;20928;-84
2023/02/28 22:02:11;;;;;;;11.13;7.45;;;3.10;99.90;;;;;;6248433;23;20133;-84
2023/02/28 22:05:20;;;;;;;12.13;6.90;;;3.00;99.90;;;;;;6221786;23;20145;-85